createdAt,value
2024-01-16T00:00:47.954Z,2.80
2024-01-16T00:03:15.111Z,2.80
2024-01-16T00:05:42.246Z,3.00
2024-01-16T00:08:09.477Z,2.90
2024-01-16T00:10:36.695Z,3.00
2024-01-16T00:13:03.859Z,3.10
2024-01-16T00:15:31.303Z,3.10
2024-01-16T00:17:58.571Z,3.20
2024-01-16T00:20:26.981Z,3.00
2024-01-16T00:22:54.344Z,3.00
2024-01-16T00:25:22.600Z,3.20
2024-01-16T00:27:49.946Z,3.30
2024-01-16T00:30:17.249Z,3.10
2024-01-16T00:32:44.599Z,3.10
2024-01-16T00:35:11.956Z,3.20
2024-01-16T00:37:39.060Z,3.10
2024-01-16T00:40:07.051Z,3.00
2024-01-16T00:42:34.236Z,3.20
2024-01-16T00:45:02.046Z,3.30
2024-01-16T00:47:29.282Z,3.30
2024-01-16T00:49:56.507Z,3.20
2024-01-16T00:52:23.764Z,3.10
2024-01-16T00:54:50.821Z,3.30
2024-01-16T00:57:20.835Z,3.40
2024-01-16T00:59:48.277Z,3.40
2024-01-16T01:02:16.393Z,3.40
2024-01-16T01:04:44.492Z,3.40
2024-01-16T01:07:15.365Z,3.30
2024-01-16T01:09:42.726Z,3.50
2024-01-16T01:12:10.587Z,3.30
2024-01-16T01:14:37.955Z,3.00
2024-01-16T01:17:05.457Z,3.00
2024-01-16T01:19:32.724Z,3.00
2024-01-16T01:22:00.039Z,3.00
2024-01-16T01:24:27.242Z,3.00
2024-01-16T01:26:54.560Z,2.70
2024-01-16T01:29:21.854Z,2.70
2024-01-16T01:31:49.675Z,2.70
2024-01-16T01:34:17.267Z,2.70
2024-01-16T01:36:44.840Z,2.70
2024-01-16T01:39:12.477Z,2.60
2024-01-16T01:41:40.556Z,2.60
2024-01-16T01:44:08.314Z,2.70
2024-01-16T01:46:37.122Z,2.70
2024-01-16T01:49:05.089Z,2.70
2024-01-16T01:51:32.706Z,2.70
2024-01-16T01:54:02.747Z,2.70
2024-01-16T01:56:30.121Z,2.70
2024-01-16T01:59:00.167Z,2.80
2024-01-16T02:01:29.188Z,2.80
2024-01-16T02:03:58.025Z,2.80
2024-01-16T02:06:25.675Z,2.80
2024-01-16T02:08:53.343Z,2.80
2024-01-16T02:11:20.872Z,2.70
2024-01-16T02:13:48.188Z,2.80
2024-01-16T02:16:22.018Z,2.70
2024-01-16T02:18:49.721Z,2.70
2024-01-16T02:21:22.374Z,2.70
2024-01-16T02:23:50.059Z,2.70
2024-01-16T02:26:18.506Z,2.80
2024-01-16T02:28:45.773Z,2.80
2024-01-16T02:31:13.895Z,2.80
2024-01-16T02:33:41.372Z,2.80
2024-01-16T02:36:08.757Z,2.80
2024-01-16T02:38:36.029Z,2.80
2024-01-16T02:41:03.341Z,2.80
2024-01-16T02:43:30.562Z,2.80
2024-01-16T02:45:57.811Z,2.80
2024-01-16T02:48:25.299Z,2.80
2024-01-16T02:50:52.517Z,2.80
2024-01-16T02:53:19.791Z,2.80
2024-01-16T02:55:47.073Z,2.80
2024-01-16T02:58:14.247Z,2.80
2024-01-16T03:00:41.493Z,2.80
2024-01-16T03:03:09.570Z,2.70
2024-01-16T03:05:37.433Z,2.70
2024-01-16T03:08:05.029Z,2.70
2024-01-16T03:10:32.314Z,2.70
2024-01-16T03:12:59.463Z,2.70
2024-01-16T03:15:27.056Z,2.70
2024-01-16T03:17:54.451Z,2.80
2024-01-16T03:20:21.692Z,2.80
2024-01-16T03:22:48.814Z,2.80
2024-01-16T03:25:17.127Z,2.80
2024-01-16T03:27:45.316Z,2.80
2024-01-16T03:30:12.762Z,2.80
2024-01-16T03:32:40.647Z,2.80
2024-01-16T03:35:08.577Z,2.80
2024-01-16T03:37:35.965Z,2.90
2024-01-16T03:40:03.413Z,2.90
2024-01-16T03:42:30.629Z,2.90
2024-01-16T03:44:58.232Z,3.00
2024-01-16T03:47:25.582Z,2.90
2024-01-16T03:49:53.627Z,3.00
2024-01-16T03:52:20.875Z,3.00
2024-01-16T03:54:47.969Z,3.00
2024-01-16T03:57:15.190Z,3.00
2024-01-16T03:59:42.648Z,3.00
2024-01-16T04:02:09.830Z,2.90
2024-01-16T04:04:37.052Z,3.00
2024-01-16T04:07:04.336Z,3.00
2024-01-16T04:09:31.583Z,3.00
2024-01-16T04:11:58.728Z,2.90
2024-01-16T04:14:26.024Z,2.80
2024-01-16T04:16:53.617Z,2.80
2024-01-16T04:19:21.088Z,2.60
2024-01-16T04:21:48.352Z,2.60
2024-01-16T04:24:15.513Z,2.60
2024-01-16T04:26:42.909Z,2.60
2024-01-16T04:29:11.043Z,2.60
2024-01-16T04:31:42.694Z,2.60
2024-01-16T04:34:10.060Z,2.60
2024-01-16T04:36:37.185Z,2.60
2024-01-16T04:39:06.975Z,2.50
2024-01-16T04:41:34.231Z,2.50
2024-01-16T04:44:01.765Z,2.50
2024-01-16T04:46:28.944Z,2.40
2024-01-16T04:48:56.761Z,2.40
2024-01-16T04:51:24.010Z,2.40
2024-01-16T04:53:51.296Z,2.40
2024-01-16T04:56:18.737Z,2.40
2024-01-16T04:58:46.035Z,2.40
2024-01-16T05:01:14.508Z,2.50
2024-01-16T05:03:41.779Z,2.50
2024-01-16T05:06:18.186Z,2.40
2024-01-16T05:08:45.424Z,2.40
2024-01-16T05:11:13.013Z,2.40
2024-01-16T05:13:40.389Z,2.40
2024-01-16T05:16:07.827Z,2.40
2024-01-16T05:18:35.387Z,2.40
2024-01-16T05:21:03.734Z,2.40
2024-01-16T05:23:30.956Z,2.30
2024-01-16T05:25:58.252Z,2.30
2024-01-16T05:28:25.703Z,2.30
2024-01-16T05:30:53.053Z,2.20
2024-01-16T05:33:20.382Z,2.20
2024-01-16T05:35:47.701Z,2.20
2024-01-16T05:38:14.902Z,2.10
2024-01-16T05:40:43.027Z,2.10
2024-01-16T05:43:10.298Z,2.10
2024-01-16T05:45:37.429Z,2.10
2024-01-16T05:48:05.061Z,2.20
2024-01-16T05:50:32.547Z,2.10
2024-01-16T05:52:59.723Z,2.00
2024-01-16T05:55:26.795Z,2.00
2024-01-16T05:57:53.949Z,1.90
2024-01-16T06:00:23.981Z,2.00
2024-01-16T06:02:51.162Z,2.00
2024-01-16T06:05:18.384Z,2.00
2024-01-16T06:07:45.735Z,2.00
2024-01-16T06:10:15.952Z,2.00
2024-01-16T06:12:43.780Z,2.00
2024-01-16T06:15:12.751Z,2.00
2024-01-16T06:17:40.219Z,2.20
2024-01-16T06:20:08.157Z,2.20
2024-01-16T06:22:36.566Z,2.30
2024-01-16T06:25:03.850Z,2.40
2024-01-16T06:27:31.069Z,2.40
2024-01-16T06:29:58.333Z,2.40
2024-01-16T06:32:25.555Z,2.30
2024-01-16T06:34:52.972Z,2.20
2024-01-16T06:37:20.254Z,2.20
2024-01-16T06:39:47.896Z,2.20
2024-01-16T06:42:15.199Z,2.30
2024-01-16T06:44:42.437Z,2.30
2024-01-16T06:47:09.636Z,2.30
2024-01-16T06:49:37.082Z,2.30
2024-01-16T06:52:04.494Z,2.40
2024-01-16T06:54:31.720Z,2.40
2024-01-16T06:56:58.958Z,2.40
2024-01-16T06:59:26.224Z,2.40
2024-01-16T07:01:53.439Z,2.50
2024-01-16T07:04:20.521Z,2.50
2024-01-16T07:06:48.632Z,2.50
2024-01-16T07:09:17.307Z,2.70
2024-01-16T07:11:44.616Z,2.70
2024-01-16T07:14:11.893Z,2.80
2024-01-16T07:16:39.486Z,2.90
2024-01-16T07:19:07.005Z,3.00
2024-01-16T07:21:35.066Z,3.00
2024-01-16T07:24:02.301Z,3.10
2024-01-16T07:26:31.107Z,3.10
2024-01-16T07:28:58.519Z,3.10
2024-01-16T07:31:26.857Z,3.00
2024-01-16T07:33:54.264Z,3.10
2024-01-16T07:36:21.538Z,3.10
2024-01-16T07:38:49.313Z,3.00
2024-01-16T07:41:16.638Z,3.10
2024-01-16T07:43:45.514Z,3.10
2024-01-16T07:46:13.884Z,3.10
2024-01-16T07:48:41.175Z,3.10
2024-01-16T07:51:08.401Z,3.20
2024-01-16T07:53:35.542Z,3.30
2024-01-16T07:56:02.808Z,3.10
2024-01-16T07:58:29.872Z,3.20
2024-01-16T08:00:57.058Z,3.20
2024-01-16T08:03:24.279Z,3.20
2024-01-16T08:05:51.571Z,3.40
2024-01-16T08:08:18.737Z,3.30
2024-01-16T08:10:46.057Z,3.30
2024-01-16T08:13:13.155Z,3.40
2024-01-16T08:15:40.363Z,3.40
2024-01-16T08:18:07.884Z,3.40
2024-01-16T08:20:35.169Z,3.40
2024-01-16T08:23:02.348Z,3.50
2024-01-16T08:25:29.434Z,3.60
2024-01-16T08:27:56.553Z,3.70
2024-01-16T08:30:24.233Z,3.80
2024-01-16T08:32:51.624Z,3.90
2024-01-16T08:35:19.118Z,3.80
2024-01-16T08:37:46.309Z,3.80
2024-01-16T08:40:13.408Z,3.90
2024-01-16T08:42:40.641Z,3.90
2024-01-16T08:45:08.223Z,3.70
2024-01-16T08:47:35.719Z,3.70
2024-01-16T08:50:03.588Z,3.50
2024-01-16T08:52:30.733Z,3.50
2024-01-16T08:54:58.946Z,3.30
2024-01-16T08:57:27.865Z,3.30
2024-01-16T08:59:56.669Z,3.30
2024-01-16T09:02:24.036Z,3.50
2024-01-16T09:04:51.891Z,3.50
2024-01-16T09:07:19.979Z,3.60
2024-01-16T09:09:47.375Z,3.50
2024-01-16T09:12:14.890Z,3.50
2024-01-16T09:14:42.732Z,3.40
2024-01-16T09:17:10.177Z,3.60
2024-01-16T09:19:37.687Z,4.00
2024-01-16T09:22:05.092Z,4.30
2024-01-16T09:24:32.501Z,4.40
2024-01-16T09:26:59.776Z,4.70
2024-01-16T09:29:27.011Z,4.40
2024-01-16T09:31:54.201Z,4.80
2024-01-16T09:34:21.463Z,4.80
2024-01-16T09:36:48.564Z,4.80
2024-01-16T09:39:19.178Z,4.80
2024-01-16T09:41:47.322Z,4.60
2024-01-16T09:44:15.166Z,4.10
2024-01-16T09:46:47.693Z,4.10
2024-01-16T09:49:16.775Z,3.80
2024-01-16T09:51:45.150Z,4.10
2024-01-16T09:54:12.430Z,3.60
2024-01-16T09:56:47.153Z,3.60
2024-01-16T09:59:18.634Z,3.60
2024-01-16T10:01:46.781Z,4.00
2024-01-16T10:04:14.724Z,4.30
2024-01-16T10:06:47.225Z,4.10
2024-01-16T10:09:14.569Z,3.80
2024-01-16T10:11:42.470Z,3.60
2024-01-16T10:14:10.735Z,3.80
2024-01-16T10:16:58.334Z,3.90
2024-01-16T10:19:35.151Z,4.00
2024-01-16T10:22:10.109Z,4.00
2024-01-16T10:24:37.229Z,3.90
2024-01-16T10:27:04.866Z,4.10
2024-01-16T10:29:43.252Z,4.30
2024-01-16T10:32:15.068Z,4.40
2024-01-16T10:34:43.623Z,4.30
2024-01-16T10:37:11.028Z,4.20
2024-01-16T10:39:43.651Z,4.40
2024-01-16T10:42:11.183Z,4.30
2024-01-16T10:44:39.501Z,4.50
2024-01-16T10:47:17.496Z,4.10
2024-01-16T10:49:46.630Z,4.20
2024-01-16T10:52:14.026Z,4.00
2024-01-16T10:54:44.200Z,4.10
2024-01-16T10:57:14.387Z,3.90
2024-01-16T10:59:49.872Z,3.80
2024-01-16T11:02:24.383Z,4.10
2024-01-16T11:04:54.160Z,4.40
2024-01-16T11:07:23.710Z,4.50
2024-01-16T11:09:51.389Z,4.30
2024-01-16T11:12:20.917Z,4.50
2024-01-16T11:14:53.374Z,4.40
2024-01-16T11:17:21.849Z,4.40
2024-01-16T11:20:07.210Z,4.40
2024-01-16T11:22:42.681Z,4.50
2024-01-16T11:25:14.860Z,4.80
2024-01-16T11:27:43.806Z,5.10
2024-01-16T11:30:13.006Z,5.10
2024-01-16T11:32:43.067Z,5.20
2024-01-16T11:35:10.765Z,5.30
2024-01-16T11:37:40.677Z,5.00
2024-01-16T11:40:22.745Z,4.90
2024-01-16T11:42:51.415Z,4.90
2024-01-16T11:45:31.382Z,4.90
2024-01-16T11:48:16.191Z,4.90
2024-01-16T11:50:44.497Z,5.00
2024-01-16T11:53:11.768Z,5.00
2024-01-16T11:55:53.826Z,5.00
2024-01-16T11:58:58.440Z,5.10
2024-01-16T12:01:27.404Z,5.20
2024-01-16T12:04:06.990Z,5.10
2024-01-16T12:06:36.568Z,5.30
2024-01-16T12:09:16.961Z,5.30
2024-01-16T12:11:46.641Z,5.30
2024-01-16T12:14:14.061Z,5.20
2024-01-16T12:16:41.440Z,5.30
2024-01-16T12:19:13.345Z,5.40
2024-01-16T12:21:45.597Z,5.50
2024-01-16T12:24:16.020Z,5.60
2024-01-16T12:26:45.901Z,5.60
2024-01-16T12:29:13.372Z,5.70
2024-01-16T12:31:40.611Z,5.80
2024-01-16T12:34:11.519Z,5.80
2024-01-16T12:36:39.689Z,5.90
2024-01-16T12:39:08.206Z,5.90
2024-01-16T12:41:43.798Z,5.90
2024-01-16T12:44:16.399Z,6.00
2024-01-16T12:47:05.206Z,6.10
2024-01-16T12:49:33.026Z,6.10
2024-01-16T12:52:19.640Z,6.20
2024-01-16T12:54:47.359Z,6.30
2024-01-16T12:57:21.835Z,6.30
2024-01-16T12:59:50.540Z,6.40
2024-01-16T13:02:26.076Z,6.40
2024-01-16T13:05:01.401Z,6.50
2024-01-16T13:07:29.280Z,6.40
2024-01-16T13:10:10.329Z,6.50
2024-01-16T13:12:37.995Z,6.50
2024-01-16T13:15:08.416Z,6.60
2024-01-16T13:17:36.469Z,6.50
2024-01-16T13:20:05.742Z,6.50
2024-01-16T13:22:40.710Z,6.40
2024-01-16T13:25:12.836Z,6.60
2024-01-16T13:27:39.916Z,6.60
2024-01-16T13:30:07.954Z,6.60
2024-01-16T13:32:38.830Z,6.60
2024-01-16T13:35:10.397Z,6.70
2024-01-16T13:37:42.471Z,6.80
2024-01-16T13:40:11.272Z,6.80
2024-01-16T13:42:39.845Z,6.80
2024-01-16T13:45:07.409Z,6.80
2024-01-16T13:47:34.696Z,6.80
2024-01-16T13:50:04.750Z,6.90
2024-01-16T13:52:32.025Z,6.90
2024-01-16T13:54:59.141Z,6.90
2024-01-16T13:57:26.241Z,6.90
2024-01-16T13:59:53.629Z,6.90
2024-01-16T14:02:20.827Z,6.80
2024-01-16T14:04:47.973Z,6.70
2024-01-16T14:07:15.169Z,6.70
2024-01-16T14:09:44.908Z,6.70
2024-01-16T14:12:13.646Z,6.60
2024-01-16T14:14:42.963Z,6.60
2024-01-16T14:17:11.195Z,6.60
2024-01-16T14:19:39.889Z,6.60
2024-01-16T14:22:07.584Z,6.50
2024-01-16T14:24:35.262Z,6.50
2024-01-16T14:27:02.494Z,6.40
2024-01-16T14:29:30.365Z,6.50
2024-01-16T14:31:58.648Z,6.40
2024-01-16T14:34:27.290Z,6.30
2024-01-16T14:36:55.462Z,6.20
2024-01-16T14:39:32.167Z,6.20
2024-01-16T14:42:03.714Z,6.10
2024-01-16T14:44:31.090Z,6.10
2024-01-16T14:46:58.368Z,6.00
2024-01-16T14:49:25.737Z,6.00
2024-01-16T14:51:53.125Z,5.90
2024-01-16T14:54:20.668Z,5.90
2024-01-16T14:56:47.992Z,5.90
2024-01-16T14:59:16.436Z,5.90
2024-01-16T15:01:45.777Z,5.90
2024-01-16T15:04:13.508Z,5.90
2024-01-16T15:06:41.171Z,5.80
2024-01-16T15:09:11.688Z,5.90
2024-01-16T15:11:39.376Z,5.80
2024-01-16T15:14:06.735Z,5.60
2024-01-16T15:16:33.902Z,5.50
2024-01-16T15:19:01.477Z,5.40
2024-01-16T15:21:28.828Z,5.30
2024-01-16T15:23:56.030Z,5.20
2024-01-16T15:26:23.487Z,5.10
2024-01-16T15:28:51.039Z,5.00
2024-01-16T15:31:19.297Z,4.90
2024-01-16T15:33:46.859Z,4.80
2024-01-16T15:36:14.211Z,4.70
2024-01-16T15:38:41.590Z,4.70
2024-01-16T15:41:08.954Z,4.70
2024-01-16T15:43:36.614Z,4.60
2024-01-16T15:46:03.918Z,4.50
2024-01-16T15:48:35.662Z,4.40
2024-01-16T15:51:05.286Z,4.40
2024-01-16T15:53:36.703Z,4.30
2024-01-16T15:56:07.882Z,4.20
2024-01-16T15:58:35.622Z,4.00
2024-01-16T16:01:03.439Z,3.90
2024-01-16T16:03:32.107Z,3.90
2024-01-16T16:05:59.579Z,3.80
2024-01-16T16:08:27.802Z,3.70
2024-01-16T16:10:55.130Z,3.60
2024-01-16T16:13:22.546Z,3.50
2024-01-16T16:15:49.686Z,3.50
2024-01-16T16:18:16.959Z,3.40
2024-01-16T16:20:44.291Z,3.40
2024-01-16T16:23:11.604Z,3.30
2024-01-16T16:25:47.342Z,3.20
2024-01-16T16:28:15.136Z,3.20
2024-01-16T16:30:42.429Z,3.20
2024-01-16T16:33:10.466Z,3.10
2024-01-16T16:35:37.767Z,3.20
2024-01-16T16:38:06.250Z,3.10
2024-01-16T16:40:33.749Z,3.00
2024-01-16T16:43:01.418Z,3.00
2024-01-16T16:45:28.660Z,3.00
2024-01-16T16:47:56.042Z,3.00
2024-01-16T16:50:23.528Z,3.00
2024-01-16T16:52:51.235Z,2.90
2024-01-16T16:55:18.354Z,2.90
2024-01-16T16:57:45.741Z,2.90
2024-01-16T17:00:15.088Z,2.80
2024-01-16T17:02:42.533Z,2.80
2024-01-16T17:05:10.956Z,2.80
2024-01-16T17:07:38.269Z,2.70
2024-01-16T17:10:05.979Z,2.70
2024-01-16T17:12:33.551Z,2.60
2024-01-16T17:15:00.842Z,2.50
2024-01-16T17:17:30.442Z,2.40
2024-01-16T17:19:58.214Z,2.40
2024-01-16T17:22:25.353Z,2.30
2024-01-16T17:24:52.425Z,2.30
2024-01-16T17:27:19.905Z,2.30
2024-01-16T17:29:47.066Z,2.20
2024-01-16T17:32:14.170Z,2.20
2024-01-16T17:34:41.484Z,2.20
2024-01-16T17:37:08.938Z,2.20
2024-01-16T17:39:36.156Z,2.20
2024-01-16T17:42:05.015Z,2.20
2024-01-16T17:44:38.283Z,2.20
2024-01-16T17:47:05.772Z,2.20
2024-01-16T17:49:34.736Z,2.20
2024-01-16T17:52:05.006Z,2.20
2024-01-16T17:54:32.249Z,2.20
2024-01-16T17:56:59.565Z,2.20
2024-01-16T17:59:32.190Z,2.20
2024-01-16T18:01:59.546Z,2.20
2024-01-16T18:04:27.066Z,2.20
2024-01-16T18:06:54.292Z,2.20
2024-01-16T18:09:22.159Z,2.20
2024-01-16T18:11:59.512Z,2.10
2024-01-16T18:14:28.002Z,2.10
2024-01-16T18:16:55.402Z,2.10
2024-01-16T18:19:28.540Z,2.10
2024-01-16T18:21:56.859Z,2.00
2024-01-16T18:24:24.147Z,2.00
2024-01-16T18:26:51.650Z,2.00
2024-01-16T18:29:21.873Z,2.00
2024-01-16T18:31:50.100Z,2.00
2024-01-16T18:34:23.276Z,1.90
2024-01-16T18:36:50.953Z,1.90
2024-01-16T18:39:20.920Z,1.80
2024-01-16T18:41:52.996Z,1.80
2024-01-16T18:44:21.095Z,1.80
2024-01-16T18:46:48.304Z,1.70
2024-01-16T18:49:16.989Z,1.70
2024-01-16T18:51:44.506Z,1.60
2024-01-16T18:54:12.408Z,1.60
2024-01-16T18:56:39.885Z,1.60
2024-01-16T18:59:08.060Z,1.60
2024-01-16T19:01:36.119Z,1.60
2024-01-16T19:04:04.673Z,1.60
2024-01-16T19:06:32.010Z,1.50
2024-01-16T19:09:00.441Z,1.50
2024-01-16T19:11:28.467Z,1.60
2024-01-16T19:13:55.677Z,1.60
2024-01-16T19:16:24.261Z,1.50
2024-01-16T19:18:51.536Z,1.50
2024-01-16T19:21:18.839Z,1.40
2024-01-16T19:23:45.955Z,1.40
2024-01-16T19:26:13.532Z,1.30
2024-01-16T19:28:40.722Z,1.30
2024-01-16T19:31:08.031Z,1.20
2024-01-16T19:33:35.455Z,1.30
2024-01-16T19:36:05.139Z,1.30
2024-01-16T19:38:33.391Z,1.30
2024-01-16T19:41:00.574Z,1.40
2024-01-16T19:43:28.697Z,1.30
2024-01-16T19:45:55.919Z,1.30
2024-01-16T19:48:23.741Z,1.20
2024-01-16T19:50:50.995Z,1.20
2024-01-16T19:53:18.401Z,1.10
2024-01-16T19:55:46.122Z,1.10
2024-01-16T19:58:13.504Z,1.10
2024-01-16T20:00:41.084Z,1.10
2024-01-16T20:03:08.811Z,1.00
2024-01-16T20:05:43.823Z,1.00
2024-01-16T20:08:11.385Z,1.00
2024-01-16T20:10:42.179Z,1.00
2024-01-16T20:13:09.272Z,1.00
2024-01-16T20:15:37.173Z,1.00
2024-01-16T20:18:06.842Z,0.90
2024-01-16T20:20:35.325Z,0.90
2024-01-16T20:23:05.621Z,0.90
2024-01-16T20:25:32.882Z,0.90
2024-01-16T20:28:02.856Z,0.80
2024-01-16T20:30:29.958Z,0.80
2024-01-16T20:32:57.257Z,0.70
2024-01-16T20:35:26.099Z,0.70
2024-01-16T20:37:53.212Z,0.70
2024-01-16T20:40:21.111Z,0.60
2024-01-16T20:42:48.189Z,0.70
2024-01-16T20:45:15.366Z,0.60
2024-01-16T20:47:42.593Z,0.60
2024-01-16T20:50:12.458Z,0.60
2024-01-16T20:52:39.677Z,0.60
2024-01-16T20:55:08.746Z,0.60
2024-01-16T20:57:36.858Z,0.60
2024-01-16T21:00:10.926Z,0.60
2024-01-16T21:02:40.511Z,0.60
2024-01-16T21:05:08.501Z,0.60
2024-01-16T21:07:36.008Z,0.60
2024-01-16T21:10:03.485Z,0.70
2024-01-16T21:12:30.743Z,0.70
2024-01-16T21:14:58.002Z,0.70
2024-01-16T21:17:25.379Z,0.70
2024-01-16T21:19:53.527Z,0.60
2024-01-16T21:22:27.550Z,0.60
2024-01-16T21:24:57.912Z,0.50
2024-01-16T21:27:25.106Z,0.50
2024-01-16T21:29:52.722Z,0.50
2024-01-16T21:32:20.345Z,0.50
2024-01-16T21:34:49.081Z,0.50
2024-01-16T21:37:16.334Z,0.40
2024-01-16T21:39:44.285Z,0.40
2024-01-16T21:42:11.534Z,0.40
2024-01-16T21:44:38.860Z,0.40
2024-01-16T21:47:06.039Z,0.50
2024-01-16T21:49:33.148Z,0.40
2024-01-16T21:52:02.249Z,0.40
2024-01-16T21:54:30.107Z,0.50
2024-01-16T21:56:57.380Z,0.50
2024-01-16T21:59:24.649Z,0.50
2024-01-16T22:01:51.828Z,0.50
2024-01-16T22:04:19.203Z,0.50
2024-01-16T22:06:46.338Z,0.50
2024-01-16T22:09:15.605Z,0.60
2024-01-16T22:11:42.881Z,0.60
2024-01-16T22:14:10.097Z,0.60
2024-01-16T22:16:37.322Z,0.60
2024-01-16T22:19:04.792Z,0.60
2024-01-16T22:21:34.085Z,0.70
2024-01-16T22:24:01.736Z,0.80
2024-01-16T22:26:29.301Z,0.90
2024-01-16T22:28:56.743Z,1.00
2024-01-16T22:31:23.861Z,1.00
2024-01-16T22:33:51.214Z,1.10
2024-01-16T22:36:18.732Z,1.10
2024-01-16T22:38:48.897Z,1.20
2024-01-16T22:41:16.909Z,1.20
2024-01-16T22:43:46.382Z,1.30
2024-01-16T22:46:13.460Z,1.30
2024-01-16T22:48:41.637Z,1.40
2024-01-16T22:51:09.236Z,1.30
2024-01-16T22:53:36.860Z,1.30
2024-01-16T22:56:04.266Z,1.40
2024-01-16T22:58:31.552Z,1.50
2024-01-16T23:01:02.314Z,1.50
2024-01-16T23:03:30.710Z,1.50
2024-01-16T23:05:58.309Z,1.50
2024-01-16T23:08:25.488Z,1.50
2024-01-16T23:10:55.212Z,1.50
2024-01-16T23:13:22.939Z,1.50
2024-01-16T23:15:50.141Z,1.50
2024-01-16T23:18:17.432Z,1.50
2024-01-16T23:20:44.992Z,1.60
2024-01-16T23:23:19.093Z,1.60
2024-01-16T23:25:47.208Z,1.60
2024-01-16T23:28:14.566Z,1.60
2024-01-16T23:30:41.768Z,1.50
2024-01-16T23:33:09.487Z,1.60
2024-01-16T23:35:36.873Z,1.70
2024-01-16T23:38:07.125Z,1.60
2024-01-16T23:40:34.205Z,1.60
2024-01-16T23:43:01.879Z,1.70
2024-01-16T23:45:33.659Z,1.70
2024-01-16T23:48:01.430Z,1.70
2024-01-16T23:50:30.252Z,1.80
2024-01-16T23:52:57.577Z,1.70
2024-01-16T23:55:25.051Z,1.80
2024-01-16T23:57:52.266Z,1.80
